NIM weather

Diori Hamani International Airport
Niamey, Niamey Capital District, Niger

Public forecast

Using degrees Celsius for public forecast. Weather courtesy of forecast.io.

Current aviation weather report (METAR) for Diori Hamani International Airport

Retrieved 2019/12/09 23:00 UTC (24 minutes ago):

DRRN 092300Z 04006KT 6000 NSC 25/M03 Q1013 NOSIG

Aviation forecast (TAF) for Diori Hamani International Airport

Retrieved 2019/12/09 18:21 UTC (5 hours ago):

TAF DRRN 091700Z 0918/1024 06008KT 3500 DU NSC BECMG 0920/0922 6000 NSW TEMPO 1006/1010 2500 DU